Elliot Cheramie — WDE9213 — position and weather

sailwx.info

Track history (hours):
 
Tides and Currents Weather Stations Pressure Air Temp Water Temp Dewpoint Dewpoint Depression Visibility Wind Speed Wind Dir Waves Ship Positions

Elliot Cheramie

Owner: Cheramie Marine LLC, Golden Meadow, LA. More information available from US FCC via Universal Licensing System and Coast Guard Vessel Documentation Center.

Last reported at 2018-Feb-17 03:44 UTC. Time now 2018-Feb-24 09:54 UTC.
Position N 28°52' W 093°48'.

Length 44 m; draft 2.5 m.

Type: Ship. MMSI: 367414780.

Date/timePositionNaut miles runAvg speedWind from/ knotsBaromVisibWave heightAir tempDewpointWater temp
2018-Feb-17 03:44N 28°52' W 093°48'2 9.9
2018-Feb-17 03:30N 28°52' W 093°51'5 9.8
2018-Feb-17 02:59N 28°53' W 093°56'5 9.8
2018-Feb-17 02:30N 28°53' W 094°02'5 9.8
2018-Feb-17 02:00N 28°53' W 094°07'5 9.6
2018-Feb-17 01:30N 28°53' W 094°13'5 9.8
2018-Feb-17 01:00N 28°54' W 094°19'5 9.8
2018-Feb-17 00:30N 28°54' W 094°24'5 9.9
2018-Feb-17 00:00N 28°54' W 094°30'5 9.9
2018-Feb-16 23:28N 28°54' W 094°36'6 9.8
2018-Feb-16 22:54N 28°54' W 094°42'13 9.4
2018-Feb-16 21:28N 28°55' W 094°58'17 3.4
2018-Feb-16 16:22N 28°58' W 095°17'0 0.0
2018-Feb-16 15:51N 28°58' W 095°17'0 0.0
2018-Feb-16 15:28N 28°58' W 095°17'0 0.0
2018-Feb-16 15:00N 28°58' W 095°17'0 0.0
2018-Feb-16 14:18N 28°58' W 095°17'0 0.0
2018-Feb-16 13:50N 28°58' W 095°17'0 0.0
2018-Feb-16 13:30N 28°58' W 095°17'0 0.0
2018-Feb-16 12:56N 28°58' W 095°17'0 0.0
2018-Feb-16 12:28N 28°58' W 095°17'0 0.0
2018-Feb-16 12:00N 28°58' W 095°17'0 0.0
2018-Feb-16 11:23N 28°58' W 095°17'0 0.0
2018-Feb-16 10:54N 28°58' W 095°17'0 0.0
2018-Feb-16 08:45N 28°58' W 095°17'0 0.0
2018-Feb-16 08:27N 28°58' W 095°17'0 0.0
2018-Feb-16 08:00N 28°58' W 095°17'0 0.0
2018-Feb-16 07:28N 28°58' W 095°17'0 0.0
2018-Feb-16 07:00N 28°58' W 095°17'0 0.0
2018-Feb-16 06:30N 28°58' W 095°17'0 0.0
2018-Feb-16 06:00N 28°58' W 095°17'0 0.0
2018-Feb-16 05:30N 28°58' W 095°17'0 0.0
2018-Feb-16 05:00N 28°58' W 095°17'0 0.0
2018-Feb-16 04:30N 28°58' W 095°17'0 0.0
2018-Feb-16 03:59N 28°58' W 095°17'0 0.0
2018-Feb-16 03:30N 28°58' W 095°17'0 0.0
2018-Feb-16 03:00N 28°58' W 095°17'0 0.0
2018-Feb-16 02:30N 28°58' W 095°17'0 0.0
2018-Feb-16 02:00N 28°58' W 095°17'0 0.0
2018-Feb-16 01:30N 28°58' W 095°17'0 0.0
2018-Feb-16 01:00N 28°58' W 095°17'0 0.0
2018-Feb-16 00:30N 28°58' W 095°17'0 0.0
2018-Feb-15 23:59N 28°58' W 095°17'0 0.0
2018-Feb-15 23:27N 28°58' W 095°17'0 0.0
2018-Feb-15 22:56N 28°58' W 095°17'0 0.0
2018-Feb-15 22:26N 28°58' W 095°17'0 0.0
2018-Feb-15 21:58N 28°58' W 095°17'0 0.0
2018-Feb-15 21:29N 28°58' W 095°17'0 0.0
2018-Feb-15 21:00N 28°58' W 095°17'0 0.0
2018-Feb-15 20:30N 28°58' W 095°17'0 0.0
2018-Feb-15 20:00N 28°58' W 095°17'0 0.0
2018-Feb-15 19:28N 28°58' W 095°17'0 0.0
2018-Feb-15 18:58N 28°58' W 095°17'0 0.0
2018-Feb-15 18:20N 28°58' W 095°17'0 0.0
2018-Feb-15 17:58N 28°58' W 095°17'0 0.0
2018-Feb-15 17:29N 28°58' W 095°17'0 0.0
2018-Feb-15 16:54N 28°58' W 095°17'0 0.0
2018-Feb-15 16:28N 28°58' W 095°17'0 0.0
2018-Feb-15 15:57N 28°58' W 095°17'0 0.0
2018-Feb-15 15:29N 28°58' W 095°17'0 0.0
2018-Feb-15 14:58N 28°58' W 095°17'0 0.0
2018-Feb-15 14:25N 28°58' W 095°17'0 0.0
2018-Feb-15 14:00N 28°58' W 095°17'0 0.0
2018-Feb-15 13:25N 28°58' W 095°17'0 0.0
2018-Feb-15 12:58N 28°58' W 095°17'0 0.0
2018-Feb-15 12:28N 28°58' W 095°17'0 0.0
2018-Feb-15 11:58N 28°58' W 095°17'0 0.0
2018-Feb-15 11:24N 28°58' W 095°17'0 0.0
2018-Feb-15 11:00N 28°58' W 095°17'0 0.0
2018-Feb-15 10:28N 28°58' W 095°17'0 0.0
2018-Feb-15 10:00N 28°58' W 095°17'0 0.0
2018-Feb-15 09:30N 28°58' W 095°17'0 0.0
2018-Feb-15 08:59N 28°58' W 095°17'0 0.0
2018-Feb-15 08:30N 28°58' W 095°17'0 0.0
2018-Feb-15 07:59N 28°58' W 095°17'0 0.0
2018-Feb-15 07:28N 28°58' W 095°17'0 0.0
2018-Feb-15 07:00N 28°58' W 095°17'0 0.0
2018-Feb-15 06:30N 28°58' W 095°17'0 0.0
2018-Feb-15 06:00N 28°58' W 095°17'0 0.0
2018-Feb-15 05:30N 28°58' W 095°17'0 0.0
2018-Feb-15 05:00N 28°58' W 095°17'0 0.0
2018-Feb-15 04:30N 28°58' W 095°17'0 0.0
2018-Feb-15 04:00N 28°58' W 095°17'1 2.6
2018-Feb-15 03:26N 28°57' W 095°18'24 9.6
2018-Feb-15 00:53N 28°48' W 094°52'12 9.7
2018-Feb-14 23:42N 28°44' W 094°40'25 9.6
2018-Feb-14 21:09N 28°35' W 094°14'0 0.1
2018-Feb-14 20:53N 28°35' W 094°14'0 0.0
2018-Feb-14 20:25N 28°35' W 094°14'0 0.0
2018-Feb-14 19:54N 28°35' W 094°14'0 0.0
2018-Feb-14 19:28N 28°35' W 094°14'0 0.0
2018-Feb-14 18:57N 28°35' W 094°14'0 0.0
2018-Feb-14 18:29N 28°35' W 094°14'0 0.0
2018-Feb-14 18:00N 28°35' W 094°14'0 0.0
2018-Feb-14 17:14N 28°35' W 094°14'0 0.0
2018-Feb-14 16:53N 28°35' W 094°14'0 0.0
2018-Feb-14 16:28N 28°35' W 094°14'0 0.0
2018-Feb-14 15:28N 28°35' W 094°14'0 0.0
2018-Feb-14 14:45N 28°35' W 094°14'0 0.0
2018-Feb-14 14:04N 28°35' W 094°14'0 0.1
2018-Feb-14 13:55N 28°35' W 094°14'0 0.0
2018-Feb-14 13:21N 28°35' W 094°14'0 0.0
2018-Feb-14 12:49N 28°35' W 094°14'0 0.0
2018-Feb-14 12:15N 28°35' W 094°14'0 0.0
2018-Feb-14 11:25N 28°35' W 094°14'  
2018-Feb-07 08:38N 28°58' W 095°17'0 0.0
2018-Feb-07 08:15N 28°58' W 095°17'0 0.0
2018-Feb-07 07:43N 28°58' W 095°17'0 0.0
2018-Feb-07 07:22N 28°58' W 095°17'0 0.0
2018-Feb-07 06:19N 28°58' W 095°17'0 0.0
2018-Feb-07 05:57N 28°58' W 095°17'0 0.0
2018-Feb-07 05:20N 28°58' W 095°17'  
Track history (hours):
 
Tides and Currents Weather Stations Pressure Air Temp Water Temp Dewpoint Dewpoint Depression Visibility Wind Speed Wind Dir Waves Ship Positions

Elliot Cheramie

Owner: Cheramie Marine LLC, Golden Meadow, LA. More information available from US FCC via Universal Licensing System and Coast Guard Vessel Documentation Center.

Last reported at 2018-Feb-17 03:44 UTC. Time now 2018-Feb-24 09:54 UTC.
Position N 28°52' W 093°48'.

Length 44 m; draft 2.5 m.

Type: Ship. MMSI: 367414780.

Date/timePositionNaut miles runAvg speedWind from/ knotsBaromVisibWave heightAir tempDewpointWater temp
2018-Feb-17 03:44N 28°52' W 093°48'2 9.9
2018-Feb-17 03:30N 28°52' W 093°51'5 9.8
2018-Feb-17 02:59N 28°53' W 093°56'5 9.8
2018-Feb-17 02:30N 28°53' W 094°02'5 9.8
2018-Feb-17 02:00N 28°53' W 094°07'5 9.6
2018-Feb-17 01:30N 28°53' W 094°13'5 9.8
2018-Feb-17 01:00N 28°54' W 094°19'5 9.8
2018-Feb-17 00:30N 28°54' W 094°24'5 9.9
2018-Feb-17 00:00N 28°54' W 094°30'5 9.9
2018-Feb-16 23:28N 28°54' W 094°36'6 9.8
2018-Feb-16 22:54N 28°54' W 094°42'13 9.4
2018-Feb-16 21:28N 28°55' W 094°58'17 3.4
2018-Feb-16 16:22N 28°58' W 095°17'0 0.0
2018-Feb-16 15:51N 28°58' W 095°17'0 0.0
2018-Feb-16 15:28N 28°58' W 095°17'0 0.0
2018-Feb-16 15:00N 28°58' W 095°17'0 0.0
2018-Feb-16 14:18N 28°58' W 095°17'0 0.0
2018-Feb-16 13:50N 28°58' W 095°17'0 0.0
2018-Feb-16 13:30N 28°58' W 095°17'0 0.0
2018-Feb-16 12:56N 28°58' W 095°17'0 0.0
2018-Feb-16 12:28N 28°58' W 095°17'0 0.0
2018-Feb-16 12:00N 28°58' W 095°17'0 0.0
2018-Feb-16 11:23N 28°58' W 095°17'0 0.0
2018-Feb-16 10:54N 28°58' W 095°17'0 0.0
2018-Feb-16 08:45N 28°58' W 095°17'0 0.0
2018-Feb-16 08:27N 28°58' W 095°17'0 0.0
2018-Feb-16 08:00N 28°58' W 095°17'0 0.0
2018-Feb-16 07:28N 28°58' W 095°17'0 0.0
2018-Feb-16 07:00N 28°58' W 095°17'0 0.0
2018-Feb-16 06:30N 28°58' W 095°17'0 0.0
2018-Feb-16 06:00N 28°58' W 095°17'0 0.0
2018-Feb-16 05:30N 28°58' W 095°17'0 0.0
2018-Feb-16 05:00N 28°58' W 095°17'0 0.0
2018-Feb-16 04:30N 28°58' W 095°17'0 0.0
2018-Feb-16 03:59N 28°58' W 095°17'0 0.0
2018-Feb-16 03:30N 28°58' W 095°17'0 0.0
2018-Feb-16 03:00N 28°58' W 095°17'0 0.0
2018-Feb-16 02:30N 28°58' W 095°17'0 0.0
2018-Feb-16 02:00N 28°58' W 095°17'0 0.0
2018-Feb-16 01:30N 28°58' W 095°17'0 0.0
2018-Feb-16 01:00N 28°58' W 095°17'0 0.0
2018-Feb-16 00:30N 28°58' W 095°17'0 0.0
2018-Feb-15 23:59N 28°58' W 095°17'0 0.0
2018-Feb-15 23:27N 28°58' W 095°17'0 0.0
2018-Feb-15 22:56N 28°58' W 095°17'0 0.0
2018-Feb-15 22:26N 28°58' W 095°17'0 0.0
2018-Feb-15 21:58N 28°58' W 095°17'0 0.0
2018-Feb-15 21:29N 28°58' W 095°17'0 0.0
2018-Feb-15 21:00N 28°58' W 095°17'0 0.0
2018-Feb-15 20:30N 28°58' W 095°17'0 0.0
2018-Feb-15 20:00N 28°58' W 095°17'0 0.0
2018-Feb-15 19:28N 28°58' W 095°17'0 0.0
2018-Feb-15 18:58N 28°58' W 095°17'0 0.0
2018-Feb-15 18:20N 28°58' W 095°17'0 0.0
2018-Feb-15 17:58N 28°58' W 095°17'0 0.0
2018-Feb-15 17:29N 28°58' W 095°17'0 0.0
2018-Feb-15 16:54N 28°58' W 095°17'0 0.0
2018-Feb-15 16:28N 28°58' W 095°17'0 0.0
2018-Feb-15 15:57N 28°58' W 095°17'0 0.0
2018-Feb-15 15:29N 28°58' W 095°17'0 0.0
2018-Feb-15 14:58N 28°58' W 095°17'0 0.0
2018-Feb-15 14:25N 28°58' W 095°17'0 0.0
2018-Feb-15 14:00N 28°58' W 095°17'0 0.0
2018-Feb-15 13:25N 28°58' W 095°17'0 0.0
2018-Feb-15 12:58N 28°58' W 095°17'0 0.0
2018-Feb-15 12:28N 28°58' W 095°17'0 0.0
2018-Feb-15 11:58N 28°58' W 095°17'0 0.0
2018-Feb-15 11:24N 28°58' W 095°17'0 0.0
2018-Feb-15 11:00N 28°58' W 095°17'0 0.0
2018-Feb-15 10:28N 28°58' W 095°17'0 0.0
2018-Feb-15 10:00N 28°58' W 095°17'0 0.0
2018-Feb-15 09:30N 28°58' W 095°17'0 0.0
2018-Feb-15 08:59N 28°58' W 095°17'0 0.0
2018-Feb-15 08:30N 28°58' W 095°17'0 0.0
2018-Feb-15 07:59N 28°58' W 095°17'0 0.0
2018-Feb-15 07:28N 28°58' W 095°17'0 0.0
2018-Feb-15 07:00N 28°58' W 095°17'0 0.0
2018-Feb-15 06:30N 28°58' W 095°17'0 0.0
2018-Feb-15 06:00N 28°58' W 095°17'0 0.0
2018-Feb-15 05:30N 28°58' W 095°17'0 0.0
2018-Feb-15 05:00N 28°58' W 095°17'0 0.0
2018-Feb-15 04:30N 28°58' W 095°17'0 0.0
2018-Feb-15 04:00N 28°58' W 095°17'1 2.6
2018-Feb-15 03:26N 28°57' W 095°18'24 9.6
2018-Feb-15 00:53N 28°48' W 094°52'12 9.7
2018-Feb-14 23:42N 28°44' W 094°40'25 9.6
2018-Feb-14 21:09N 28°35' W 094°14'0 0.1
2018-Feb-14 20:53N 28°35' W 094°14'0 0.0
2018-Feb-14 20:25N 28°35' W 094°14'0 0.0
2018-Feb-14 19:54N 28°35' W 094°14'0 0.0
2018-Feb-14 19:28N 28°35' W 094°14'0 0.0
2018-Feb-14 18:57N 28°35' W 094°14'0 0.0
2018-Feb-14 18:29N 28°35' W 094°14'0 0.0
2018-Feb-14 18:00N 28°35' W 094°14'0 0.0
2018-Feb-14 17:14N 28°35' W 094°14'0 0.0
2018-Feb-14 16:53N 28°35' W 094°14'0 0.0
2018-Feb-14 16:28N 28°35' W 094°14'0 0.0
2018-Feb-14 15:28N 28°35' W 094°14'0 0.0
2018-Feb-14 14:45N 28°35' W 094°14'0 0.0
2018-Feb-14 14:04N 28°35' W 094°14'0 0.1
2018-Feb-14 13:55N 28°35' W 094°14'0 0.0
2018-Feb-14 13:21N 28°35' W 094°14'0 0.0
2018-Feb-14 12:49N 28°35' W 094°14'0 0.0
2018-Feb-14 12:15N 28°35' W 094°14'0 0.0
2018-Feb-14 11:25N 28°35' W 094°14'  
2018-Feb-07 08:38N 28°58' W 095°17'0 0.0
2018-Feb-07 08:15N 28°58' W 095°17'0 0.0
2018-Feb-07 07:43N 28°58' W 095°17'0 0.0
2018-Feb-07 07:22N 28°58' W 095°17'0 0.0
2018-Feb-07 06:19N 28°58' W 095°17'0 0.0
2018-Feb-07 05:57N 28°58' W 095°17'0 0.0
2018-Feb-07 05:20N 28°58' W 095°17'  

Dump ship's entire track history